createdAt,value
2018-12-30T00:00:24.425Z,43.38
2018-12-30T00:02:53.925Z,36.40
2018-12-30T00:05:22.863Z,33.00
2018-12-30T00:07:51.415Z,41.20
2018-12-30T00:10:20.303Z,37.70
2018-12-30T00:12:48.885Z,47.33
2018-12-30T00:15:17.725Z,47.87
2018-12-30T00:17:46.333Z,41.67
2018-12-30T00:20:15.187Z,31.67
2018-12-30T00:22:43.747Z,33.40
2018-12-30T00:25:12.310Z,42.07
2018-12-30T00:27:40.869Z,36.83
2018-12-30T00:30:09.546Z,34.27
2018-12-30T00:32:38.345Z,32.70
2018-12-30T00:35:06.895Z,27.33
2018-12-30T00:37:35.443Z,27.03
2018-12-30T00:40:04.512Z,23.30
2018-12-30T00:42:33.047Z,28.90
2018-12-30T00:45:01.595Z,27.00
2018-12-30T00:47:30.430Z,29.17
2018-12-30T00:49:58.960Z,22.67
2018-12-30T00:52:27.502Z,23.20
2018-12-30T00:54:56.076Z,28.43
2018-12-30T00:57:24.994Z,23.27
2018-12-30T00:59:54.359Z,21.17
2018-12-30T01:02:23.008Z,16.90
2018-12-30T01:04:51.550Z,18.53
2018-12-30T01:07:20.179Z,18.23
2018-12-30T01:09:48.758Z,16.57
2018-12-30T01:12:17.411Z,15.18
2018-12-30T01:14:45.993Z,16.90
2018-12-30T01:17:14.529Z,17.43
2018-12-30T01:19:43.078Z,18.80
2018-12-30T01:22:11.533Z,15.27
2018-12-30T01:24:40.070Z,15.23
2018-12-30T01:27:08.648Z,14.57
2018-12-30T01:29:37.190Z,12.27
2018-12-30T01:32:06.014Z,20.40
2018-12-30T01:34:34.562Z,15.93
2018-12-30T01:37:03.096Z,10.97
2018-12-30T01:39:31.758Z,13.60
2018-12-30T01:42:00.343Z,36.97
2018-12-30T01:44:28.918Z,16.97
2018-12-30T01:46:57.442Z,8.37
2018-12-30T01:49:25.994Z,11.50
2018-12-30T01:51:54.569Z,8.38
2018-12-30T01:54:23.173Z,11.00
2018-12-30T01:56:51.919Z,10.63
2018-12-30T01:59:20.450Z,8.60
2018-12-30T02:01:48.970Z,6.97
2018-12-30T02:04:17.597Z,7.30
2018-12-30T02:06:46.053Z,8.33
2018-12-30T02:09:14.629Z,5.90
2018-12-30T02:11:43.110Z,6.00
2018-12-30T02:14:11.644Z,4.50
2018-12-30T02:16:40.415Z,6.47
2018-12-30T02:19:09.432Z,5.20
2018-12-30T02:21:41.196Z,6.67
2018-12-30T02:24:08.189Z,5.30
2018-12-30T02:26:36.725Z,4.47
2018-12-30T02:29:05.262Z,3.20
2018-12-30T02:31:34.020Z,6.37
2018-12-30T02:34:02.590Z,3.30
2018-12-30T02:36:31.153Z,3.13
2018-12-30T02:38:59.708Z,4.93
2018-12-30T02:41:28.256Z,3.00
2018-12-30T02:43:57.440Z,3.30
2018-12-30T02:46:25.969Z,2.23
2018-12-30T02:48:54.510Z,2.70
2018-12-30T02:51:23.276Z,3.80
2018-12-30T02:53:51.808Z,4.27
2018-12-30T02:56:20.649Z,4.00
2018-12-30T02:58:49.225Z,2.77
2018-12-30T03:01:17.793Z,4.00
2018-12-30T03:03:46.590Z,2.40
2018-12-30T03:06:15.133Z,7.87
2018-12-30T03:08:43.989Z,4.70
2018-12-30T03:11:12.563Z,5.47
2018-12-30T03:13:41.019Z,3.60
2018-12-30T03:16:09.490Z,5.50
2018-12-30T03:18:38.036Z,4.60
2018-12-30T03:21:06.715Z,3.47
2018-12-30T03:23:35.250Z,5.47
2018-12-30T03:26:03.733Z,6.43
2018-12-30T03:28:32.217Z,5.47
2018-12-30T03:31:00.672Z,4.37
2018-12-30T03:33:29.174Z,5.53
2018-12-30T03:35:57.735Z,4.97
2018-12-30T03:38:26.202Z,5.80
2018-12-30T03:40:55.125Z,5.30
2018-12-30T03:43:23.821Z,6.57
2018-12-30T03:45:52.358Z,5.40
2018-12-30T03:48:20.818Z,5.53
2018-12-30T03:50:49.314Z,4.90
2018-12-30T03:53:17.978Z,9.90
2018-12-30T03:55:46.423Z,6.30
2018-12-30T03:58:14.900Z,6.90
2018-12-30T04:00:43.403Z,6.47
2018-12-30T04:03:11.877Z,6.53
2018-12-30T04:05:40.365Z,8.67
2018-12-30T04:08:09.009Z,7.10
2018-12-30T04:10:37.559Z,6.53
2018-12-30T04:13:06.061Z,6.63
2018-12-30T04:15:34.525Z,7.60
2018-12-30T04:18:03.289Z,5.73
2018-12-30T04:20:31.775Z,7.73
2018-12-30T04:23:00.235Z,11.13
2018-12-30T04:25:28.929Z,8.00
2018-12-30T04:27:57.406Z,8.90
2018-12-30T04:30:25.945Z,8.20
2018-12-30T04:32:54.500Z,8.30
2018-12-30T04:35:22.979Z,7.90
2018-12-30T04:37:51.529Z,8.37
2018-12-30T04:40:19.997Z,10.97
2018-12-30T04:42:48.676Z,8.33
2018-12-30T04:45:17.145Z,8.50
2018-12-30T04:47:45.619Z,6.90
2018-12-30T04:50:14.113Z,6.83
2018-12-30T04:52:42.567Z,7.20
2018-12-30T04:55:11.059Z,5.85
2018-12-30T04:57:39.590Z,9.13
2018-12-30T05:00:08.509Z,7.70
2018-12-30T05:02:36.956Z,5.70
2018-12-30T05:05:06.338Z,7.07
2018-12-30T05:07:34.886Z,8.53
2018-12-30T05:10:03.823Z,5.93
2018-12-30T05:12:32.311Z,5.93
2018-12-30T05:15:00.882Z,6.50
2018-12-30T05:17:29.335Z,5.37
2018-12-30T05:19:57.805Z,6.43
2018-12-30T05:22:33.665Z,6.57
2018-12-30T05:24:56.498Z,7.87
2018-12-30T05:27:25.059Z,6.33
2018-12-30T05:29:53.566Z,8.03
2018-12-30T05:32:22.097Z,5.63
2018-12-30T05:34:50.570Z,7.63
2018-12-30T05:37:19.114Z,5.70
2018-12-30T05:39:47.582Z,7.87
2018-12-30T05:42:16.512Z,9.30
2018-12-30T05:44:45.047Z,6.30
2018-12-30T05:47:13.563Z,13.90
2018-12-30T05:49:42.101Z,6.77
2018-12-30T05:52:10.598Z,10.27
2018-12-30T05:54:39.084Z,8.67
2018-12-30T05:57:07.659Z,12.30
2018-12-30T05:59:36.118Z,8.77
2018-12-30T06:02:04.594Z,10.67
2018-12-30T06:04:33.087Z,9.23
2018-12-30T06:07:01.552Z,11.05
2018-12-30T06:09:30.047Z,9.30
2018-12-30T06:11:58.517Z,10.03
2018-12-30T06:14:27.004Z,10.13
2018-12-30T06:16:56.078Z,11.68
2018-12-30T06:19:24.551Z,13.30
2018-12-30T06:21:53.113Z,11.07
2018-12-30T06:24:21.591Z,11.80
2018-12-30T06:26:50.080Z,13.48
2018-12-30T06:29:18.556Z,10.30
2018-12-30T06:31:47.092Z,9.80
2018-12-30T06:34:15.658Z,13.17
2018-12-30T06:36:44.202Z,13.50
2018-12-30T06:39:12.691Z,9.73
2018-12-30T06:41:41.275Z,7.63
2018-12-30T06:44:10.652Z,11.40
2018-12-30T06:46:39.235Z,11.45
2018-12-30T06:49:07.726Z,11.17
2018-12-30T06:51:36.272Z,9.80
2018-12-30T06:54:04.792Z,11.05
2018-12-30T06:56:33.522Z,10.83
2018-12-30T06:59:03.430Z,10.77
2018-12-30T07:01:31.899Z,12.17
2018-12-30T07:04:00.678Z,8.73
2018-12-30T07:06:29.255Z,9.20
2018-12-30T07:08:57.737Z,11.53
2018-12-30T07:11:26.376Z,8.13
2018-12-30T07:13:55.009Z,7.23
2018-12-30T07:16:23.503Z,9.57
2018-12-30T07:18:52.090Z,8.67
2018-12-30T07:21:20.970Z,10.10
2018-12-30T07:23:49.511Z,10.40
2018-12-30T07:26:18.059Z,11.60
2018-12-30T07:28:46.603Z,10.10
2018-12-30T07:31:15.253Z,11.43
2018-12-30T07:33:43.793Z,15.53
2018-12-30T07:36:12.253Z,9.78
2018-12-30T07:38:40.815Z,13.43
2018-12-30T07:41:09.281Z,10.70
2018-12-30T07:43:37.861Z,7.10
2018-12-30T07:46:06.381Z,9.50
2018-12-30T07:48:34.873Z,10.80
2018-12-30T07:51:03.400Z,9.53
2018-12-30T07:53:31.941Z,8.20
2018-12-30T07:56:00.416Z,7.83
2018-12-30T07:58:29.074Z,7.33
2018-12-30T08:00:57.598Z,7.83
2018-12-30T08:03:26.058Z,6.80
2018-12-30T08:05:54.583Z,6.97
2018-12-30T08:08:23.074Z,7.90
2018-12-30T08:10:51.596Z,8.80
2018-12-30T08:13:20.206Z,8.17
2018-12-30T08:15:49.019Z,8.50
2018-12-30T08:18:18.144Z,8.87
2018-12-30T08:20:46.717Z,8.20
2018-12-30T08:23:21.481Z,6.13
2018-12-30T08:25:45.384Z,6.17
2018-12-30T08:28:13.855Z,6.50
2018-12-30T08:30:42.442Z,8.73
2018-12-30T08:33:10.914Z,8.33
2018-12-30T08:35:39.376Z,6.87
2018-12-30T08:38:07.935Z,8.33
2018-12-30T08:40:36.438Z,7.60
2018-12-30T08:43:04.902Z,6.87
2018-12-30T08:45:33.427Z,5.17
2018-12-30T08:48:01.985Z,8.08
2018-12-30T08:50:30.458Z,5.00
2018-12-30T08:52:59.060Z,5.27
2018-12-30T08:55:27.811Z,6.90
2018-12-30T08:57:58.502Z,9.90
2018-12-30T09:00:27.094Z,6.27
2018-12-30T09:02:55.690Z,16.70
2018-12-30T09:05:24.233Z,6.58
2018-12-30T09:07:52.792Z,6.30
2018-12-30T09:10:21.370Z,11.67
2018-12-30T09:12:49.833Z,8.07
2018-12-30T09:15:18.884Z,15.65
2018-12-30T09:17:47.706Z,8.00
2018-12-30T09:20:16.215Z,9.83
2018-12-30T09:22:44.732Z,10.17
2018-12-30T09:25:13.301Z,7.55
2018-12-30T09:27:41.818Z,9.90
2018-12-30T09:30:10.347Z,9.63
2018-12-30T09:32:38.902Z,6.60
2018-12-30T09:35:07.490Z,7.87
2018-12-30T09:37:37.373Z,11.50
2018-12-30T09:40:07.146Z,10.04
2018-12-30T09:42:35.767Z,16.07
2018-12-30T09:45:05.574Z,15.80
2018-12-30T09:47:34.125Z,11.50
2018-12-30T09:50:02.663Z,15.60
2018-12-30T09:52:31.125Z,11.57
2018-12-30T09:54:59.910Z,14.70
2018-12-30T09:57:28.443Z,18.57
2018-12-30T09:59:56.927Z,12.83
2018-12-30T10:02:25.454Z,14.10
2018-12-30T10:04:54.005Z,11.87
2018-12-30T10:07:22.508Z,12.63
2018-12-30T10:09:51.052Z,16.83
2018-12-30T10:12:19.602Z,15.03
2018-12-30T10:14:48.125Z,14.60
2018-12-30T10:17:16.639Z,12.23
2018-12-30T10:19:45.225Z,12.03
2018-12-30T10:22:13.745Z,17.98
2018-12-30T10:24:42.365Z,15.83
2018-12-30T10:27:10.923Z,11.93
2018-12-30T10:29:39.430Z,13.60
2018-12-30T10:32:07.891Z,19.70
2018-12-30T10:34:36.457Z,15.47
2018-12-30T10:37:05.054Z,16.50
2018-12-30T10:39:33.509Z,14.47
2018-12-30T10:42:02.035Z,11.90
2018-12-30T10:44:30.599Z,16.87
2018-12-30T10:46:59.096Z,15.47
2018-12-30T10:49:27.572Z,27.97
2018-12-30T10:51:56.149Z,15.37
2018-12-30T10:54:24.695Z,14.50
2018-12-30T10:56:53.275Z,21.07
2018-12-30T10:59:21.803Z,16.47
2018-12-30T11:01:50.669Z,20.70
2018-12-30T11:04:19.162Z,14.90
2018-12-30T11:06:47.772Z,27.07
2018-12-30T11:09:16.366Z,33.53
2018-12-30T11:11:44.962Z,26.77
2018-12-30T11:14:13.498Z,20.03
2018-12-30T11:16:42.050Z,13.47
2018-12-30T11:19:10.818Z,21.17
2018-12-30T11:21:39.349Z,19.10
2018-12-30T11:24:08.643Z,27.90
2018-12-30T11:26:38.629Z,26.60
2018-12-30T11:29:07.087Z,18.90
2018-12-30T11:31:35.592Z,15.87
2018-12-30T11:34:04.313Z,21.77
2018-12-30T11:36:32.772Z,18.30
2018-12-30T11:39:01.245Z,18.37
2018-12-30T11:41:29.803Z,15.40
2018-12-30T11:43:58.284Z,23.30
2018-12-30T11:46:27.014Z,12.60
2018-12-30T11:48:55.549Z,18.33
2018-12-30T11:51:24.010Z,19.33
2018-12-30T11:53:52.512Z,17.70
2018-12-30T11:56:20.986Z,20.10
2018-12-30T11:58:49.851Z,15.80
2018-12-30T12:01:18.611Z,21.10
2018-12-30T12:03:47.103Z,25.00
2018-12-30T12:06:15.655Z,18.23
2018-12-30T12:08:45.503Z,22.97
2018-12-30T12:11:13.974Z,15.73
2018-12-30T12:13:42.510Z,20.30
2018-12-30T12:16:11.192Z,21.87
2018-12-30T12:18:39.660Z,24.33
2018-12-30T12:21:08.126Z,20.30
2018-12-30T12:23:36.641Z,21.20
2018-12-30T12:26:05.197Z,21.25
2018-12-30T12:28:33.675Z,15.40
2018-12-30T12:31:02.304Z,17.83
2018-12-30T12:33:30.819Z,15.93
2018-12-30T12:35:59.291Z,19.17
2018-12-30T12:38:27.864Z,20.20
2018-12-30T12:40:56.429Z,22.57
2018-12-30T12:43:25.010Z,18.23
2018-12-30T12:45:53.580Z,15.50
2018-12-30T12:48:23.094Z,14.40
2018-12-30T12:50:51.632Z,14.50
2018-12-30T12:53:20.262Z,17.97
2018-12-30T12:55:49.116Z,13.40
2018-12-30T12:58:17.655Z,11.53
2018-12-30T13:00:46.266Z,11.60
2018-12-30T13:03:14.829Z,9.27
2018-12-30T13:05:43.377Z,11.73
2018-12-30T13:08:11.920Z,13.63
2018-12-30T13:10:40.665Z,27.10
2018-12-30T13:13:09.237Z,14.67
2018-12-30T14:20:48.936Z,18.47
2018-12-30T14:23:29.634Z,25.80
2018-12-30T14:26:10.499Z,21.73
2018-12-30T14:28:50.765Z,29.50
2018-12-30T14:31:31.516Z,24.97
2018-12-30T14:34:10.232Z,20.03
2018-12-30T14:36:58.101Z,22.40
2018-12-30T14:39:45.959Z,43.03
2018-12-30T14:42:33.794Z,25.17
2018-12-30T14:48:28.572Z,24.27
2018-12-30T14:51:16.457Z,22.60
2018-12-30T14:54:04.284Z,16.73
2018-12-30T14:56:52.186Z,18.67
2018-12-30T14:59:40.039Z,25.10
2018-12-30T15:02:08.503Z,25.63
2018-12-30T15:07:49.602Z,19.50
2018-12-30T15:10:37.416Z,21.83
2018-12-30T15:13:25.224Z,18.27
2018-12-30T15:16:13.072Z,69.97
2018-12-30T15:21:54.427Z,15.33
2018-12-30T15:24:42.223Z,17.03
2018-12-30T15:27:30.045Z,15.87
2018-12-30T15:30:17.858Z,63.77
2018-12-30T15:35:59.261Z,36.77
2018-12-30T15:38:27.732Z,23.90
2018-12-30T15:41:15.923Z,17.63
2018-12-30T15:44:03.774Z,38.13
2018-12-30T15:46:51.661Z,21.07
2018-12-30T15:49:39.515Z,29.70
2018-12-30T15:52:27.384Z,33.57
2018-12-30T15:55:19.340Z,23.70
2018-12-30T15:58:04.754Z,17.50
2018-12-30T16:00:45.467Z,21.10
2018-12-30T16:03:25.869Z,21.10
2018-12-30T16:06:06.653Z,25.50
2018-12-30T16:08:47.622Z,28.13
2018-12-30T16:11:28.832Z,15.80
2018-12-30T16:14:09.860Z,23.47
2018-12-30T16:16:51.632Z,16.70
2018-12-30T16:19:32.797Z,14.67
2018-12-30T16:22:13.616Z,17.20
2018-12-30T16:24:54.499Z,22.53
2018-12-30T16:27:35.661Z,19.10
2018-12-30T16:30:16.861Z,15.80
2018-12-30T16:32:58.298Z,26.30
2018-12-30T16:35:26.839Z,18.10
2018-12-30T16:38:14.755Z,14.10
2018-12-30T16:41:02.617Z,25.25
2018-12-30T16:43:50.454Z,22.57
2018-12-30T16:46:38.287Z,17.55
2018-12-30T16:49:26.092Z,13.93
2018-12-30T16:52:13.993Z,15.13
2018-12-30T16:55:01.795Z,19.32
2018-12-30T16:57:49.632Z,18.80
2018-12-30T17:03:11.260Z,24.10
2018-12-30T17:05:59.091Z,19.05
2018-12-30T17:08:40.284Z,25.77
2018-12-30T17:11:20.605Z,24.93
2018-12-30T17:14:00.893Z,20.30
2018-12-30T17:16:41.912Z,17.00
2018-12-30T17:19:23.065Z,16.40
2018-12-30T17:22:01.824Z,17.10
2018-12-30T17:24:50.612Z,15.77
2018-12-30T17:27:39.188Z,16.93
2018-12-30T17:30:09.613Z,14.90
2018-12-30T17:32:57.473Z,20.83
2018-12-30T17:35:46.276Z,9.80
2018-12-30T17:38:34.827Z,19.13
2018-12-30T17:41:22.665Z,15.73
2018-12-30T17:43:51.122Z,15.28
2018-12-30T17:46:38.976Z,18.33
2018-12-30T17:49:26.866Z,20.10
2018-12-30T17:52:14.665Z,18.82
2018-12-30T17:55:02.663Z,18.82
2018-12-30T17:57:50.543Z,18.30
2018-12-30T18:00:38.390Z,19.35
2018-12-30T18:03:26.302Z,14.10
2018-12-30T18:09:07.281Z,14.83
2018-12-30T18:11:48.039Z,11.97
2018-12-30T18:14:28.393Z,22.07
2018-12-30T18:17:09.280Z,15.60
2018-12-30T18:19:49.745Z,22.00
2018-12-30T18:22:30.061Z,18.70
2018-12-30T18:25:10.640Z,15.57
2018-12-30T18:27:50.971Z,23.23
2018-12-30T18:30:32.066Z,16.80
2018-12-30T18:33:13.239Z,11.90
2018-12-30T18:35:54.400Z,12.10
2018-12-30T18:38:34.959Z,10.87
2018-12-30T18:41:16.104Z,14.53
2018-12-30T18:43:57.287Z,10.75
2018-12-30T18:46:36.113Z,12.33
2018-12-30T18:49:23.972Z,13.17
2018-12-30T18:52:11.770Z,12.93
2018-12-30T18:54:59.607Z,18.43
2018-12-30T18:57:47.406Z,17.33
2018-12-30T19:00:35.241Z,22.60
2018-12-30T19:06:16.941Z,16.27
2018-12-30T19:08:57.803Z,17.13
2018-12-30T19:11:38.653Z,15.10
2018-12-30T19:14:19.208Z,17.17
2018-12-30T19:16:59.674Z,12.97
2018-12-30T19:19:38.600Z,11.33
2018-12-30T19:22:26.415Z,12.50
2018-12-30T19:25:14.245Z,12.20
2018-12-30T19:28:02.081Z,12.67
2018-12-30T19:30:50.002Z,12.83
2018-12-30T19:33:37.847Z,14.30
2018-12-30T19:36:25.727Z,10.83
2018-12-30T19:39:13.562Z,15.70
2018-12-30T19:42:01.363Z,15.37
2018-12-30T19:44:49.270Z,17.87
2018-12-30T19:50:24.241Z,14.17
2018-12-30T19:53:05.191Z,12.28
2018-12-30T19:55:45.514Z,13.73
2018-12-30T19:58:26.661Z,11.63
2018-12-30T20:01:07.648Z,9.03
2018-12-30T20:03:48.483Z,17.50
2018-12-30T20:06:29.549Z,10.03
2018-12-30T20:09:10.213Z,11.13
2018-12-30T20:11:51.139Z,17.57
2018-12-30T20:14:32.314Z,15.63
2018-12-30T20:17:12.637Z,17.83
2018-12-30T20:19:53.471Z,14.60
2018-12-30T20:22:34.076Z,11.50
2018-12-30T20:25:15.248Z,14.30
2018-12-30T20:27:55.594Z,16.77
2018-12-30T20:30:36.668Z,13.95
2018-12-30T20:33:17.692Z,8.40
2018-12-30T20:35:46.273Z,9.27
2018-12-30T20:38:34.125Z,10.73
2018-12-30T20:41:21.938Z,8.95
2018-12-30T20:44:09.845Z,11.00
2018-12-30T20:46:57.641Z,8.87
2018-12-30T20:49:38.428Z,9.70
2018-12-30T20:52:19.611Z,13.20
2018-12-30T20:55:00.306Z,13.00
2018-12-30T20:57:41.047Z,15.10
2018-12-30T21:00:21.505Z,12.83
2018-12-30T21:03:02.242Z,72.63
2018-12-30T21:05:43.271Z,9.40
2018-12-30T21:08:23.869Z,15.20
2018-12-30T21:11:04.443Z,10.10
2018-12-30T21:13:43.392Z,13.17
2018-12-30T21:16:31.245Z,10.23
2018-12-30T21:18:59.759Z,9.83
2018-12-30T21:21:47.616Z,11.53
2018-12-30T21:24:35.502Z,9.63
2018-12-30T21:27:23.304Z,9.23
2018-12-30T21:33:04.484Z,19.03
2018-12-30T21:38:45.312Z,13.53
2018-12-30T21:41:33.101Z,12.07
2018-12-30T21:44:20.919Z,16.77
2018-12-30T21:47:08.749Z,15.47
2018-12-30T21:49:56.635Z,8.70
2018-12-30T21:52:25.159Z,13.40
2018-12-30T21:55:13.001Z,18.13
2018-12-30T21:58:00.806Z,9.30
2018-12-30T22:00:48.709Z,13.67
2018-12-30T22:03:17.163Z,10.67
2018-12-30T22:06:04.985Z,11.80
2018-12-30T22:08:52.792Z,22.80
2018-12-30T22:11:40.704Z,11.40
2018-12-30T22:14:28.502Z,10.07
2018-12-30T22:20:10.640Z,11.73
2018-12-30T22:22:58.499Z,16.37
2018-12-30T22:25:46.292Z,13.90
2018-12-30T22:28:34.132Z,14.07
2018-12-30T22:34:16.756Z,16.35
2018-12-30T22:37:04.659Z,12.60
2018-12-30T22:39:44.915Z,11.00
2018-12-30T22:42:32.620Z,11.43
2018-12-30T22:45:07.902Z,16.25
2018-12-30T22:47:36.400Z,9.60
2018-12-30T22:50:24.519Z,21.53
2018-12-30T22:53:12.535Z,12.50
2018-12-30T22:56:00.370Z,13.70
2018-12-30T22:58:48.167Z,16.10
2018-12-30T23:01:36.009Z,27.87
2018-12-30T23:04:23.828Z,13.32
2018-12-30T23:07:12.575Z,10.83
2018-12-30T23:10:00.384Z,12.30
2018-12-30T23:12:48.272Z,14.13
2018-12-30T23:15:28.826Z,12.15
2018-12-30T23:17:57.284Z,20.70
2018-12-30T23:20:45.119Z,14.13
2018-12-30T23:23:32.963Z,14.07
2018-12-30T23:29:27.727Z,11.73
2018-12-30T23:32:15.553Z,18.50
2018-12-30T23:35:03.453Z,14.07
2018-12-30T23:37:51.279Z,13.03
2018-12-30T23:43:45.983Z,14.90
2018-12-30T23:49:27.710Z,17.12
2018-12-30T23:52:15.581Z,17.33
2018-12-30T23:55:03.474Z,16.17
